sensor_id;sensor_type;location;lat;lon;timestamp;pressure;altitude;pressure_sealevel;temperature;humidity
58092;BME280;43896;48.178;11.578;2023-03-17T00:00:13;95745.44;;;5.02;58.58
58092;BME280;43896;48.178;11.578;2023-03-17T00:02:40;95738.53;;;5.12;58.65
58092;BME280;43896;48.178;11.578;2023-03-17T00:07:44;95699.75;;;4.98;57.97
58092;BME280;43896;48.178;11.578;2023-03-17T00:10:14;95669.72;;;4.40;59.02
58092;BME280;43896;48.178;11.578;2023-03-17T00:12:41;95669.06;;;4.27;59.50
58092;BME280;43896;48.178;11.578;2023-03-17T00:15:07;95717.03;;;4.78;59.71
58092;BME280;43896;48.178;11.578;2023-03-17T00:17:33;95712.22;;;4.73;59.29
58092;BME280;43896;48.178;11.578;2023-03-17T00:19:58;95670.13;;;4.57;58.29
58092;BME280;43896;48.178;11.578;2023-03-17T00:22:23;95704.19;;;4.86;58.60
58092;BME280;43896;48.178;11.578;2023-03-17T00:24:49;95696.91;;;5.01;57.99
58092;BME280;43896;48.178;11.578;2023-03-17T00:27:15;95749.38;;;4.75;59.44
58092;BME280;43896;48.178;11.578;2023-03-17T00:29:42;95650.38;;;4.22;59.34
58092;BME280;43896;48.178;11.578;2023-03-17T00:32:18;95660.50;;;4.36;59.24
58092;BME280;43896;48.178;11.578;2023-03-17T00:34:44;95652.31;;;4.08;60.26
58092;BME280;43896;48.178;11.578;2023-03-17T00:37:11;95698.53;;;4.60;59.69
58092;BME280;43896;48.178;11.578;2023-03-17T00:39:37;95764.16;;;5.07;59.70
58092;BME280;43896;48.178;11.578;2023-03-17T00:42:04;95642.13;;;4.17;59.45
58092;BME280;43896;48.178;11.578;2023-03-17T00:44:30;95707.28;;;4.59;59.99
58092;BME280;43896;48.178;11.578;2023-03-17T00:46:56;95717.97;;;4.56;59.88
58092;BME280;43896;48.178;11.578;2023-03-17T00:49:23;95688.97;;;4.81;59.05
58092;BME280;43896;48.178;11.578;2023-03-17T00:51:49;95698.38;;;4.29;60.93
58092;BME280;43896;48.178;11.578;2023-03-17T00:54:16;95691.72;;;4.36;60.75
58092;BME280;43896;48.178;11.578;2023-03-17T00:56:43;95711.38;;;4.40;61.04
58092;BME280;43896;48.178;11.578;2023-03-17T00:59:18;95666.72;;;4.12;60.54
58092;BME280;43896;48.178;11.578;2023-03-17T01:01:45;95649.34;;;4.45;59.29
58092;BME280;43896;48.178;11.578;2023-03-17T01:04:10;95633.72;;;4.45;59.23
58092;BME280;43896;48.178;11.578;2023-03-17T01:06:36;95687.09;;;4.93;58.79
58092;BME280;43896;48.178;11.578;2023-03-17T01:09:02;95696.00;;;4.91;58.85
58092;BME280;43896;48.178;11.578;2023-03-17T01:11:28;95629.59;;;4.64;58.67
58092;BME280;43896;48.178;11.578;2023-03-17T01:13:53;95672.31;;;4.94;58.32
58092;BME280;43896;48.178;11.578;2023-03-17T01:16:18;95668.94;;;4.82;58.68
58092;BME280;43896;48.178;11.578;2023-03-17T01:18:44;95733.25;;;5.23;59.09
58092;BME280;43896;48.178;11.578;2023-03-17T01:21:10;95678.84;;;4.67;59.68
58092;BME280;43896;48.178;11.578;2023-03-17T01:23:35;95720.72;;;5.17;59.31
58092;BME280;43896;48.178;11.578;2023-03-17T01:26:01;95616.03;;;4.28;59.53
58092;BME280;43896;48.178;11.578;2023-03-17T01:28:27;95626.94;;;4.54;58.88
58092;BME280;43896;48.178;11.578;2023-03-17T01:30:53;95692.75;;;4.77;59.88
58092;BME280;43896;48.178;11.578;2023-03-17T01:33:18;95631.97;;;4.35;59.65
58092;BME280;43896;48.178;11.578;2023-03-17T01:35:43;95663.47;;;4.85;59.60
58092;BME280;43896;48.178;11.578;2023-03-17T01:38:10;95708.53;;;5.18;58.65
58092;BME280;43896;48.178;11.578;2023-03-17T01:40:41;95666.00;;;4.96;58.73
58092;BME280;43896;48.178;11.578;2023-03-17T01:48:49;95666.22;;;4.83;59.51
58092;BME280;43896;48.178;11.578;2023-03-17T01:54:04;95592.44;;;4.08;60.54
58092;BME280;43896;48.178;11.578;2023-03-17T01:56:31;95568.09;;;3.77;60.95
58092;BME280;43896;48.178;11.578;2023-03-17T01:59:00;95611.00;;;4.15;61.35
58092;BME280;43896;48.178;11.578;2023-03-17T02:01:27;95676.88;;;4.16;62.16
58092;BME280;43896;48.178;11.578;2023-03-17T02:03:57;95590.97;;;3.51;63.11
58092;BME280;43896;48.178;11.578;2023-03-17T02:06:23;95601.66;;;3.80;62.57
58092;BME280;43896;48.178;11.578;2023-03-17T02:08:49;95627.19;;;4.19;62.30
58092;BME280;43896;48.178;11.578;2023-03-17T02:11:17;95648.25;;;4.48;61.06
58092;BME280;43896;48.178;11.578;2023-03-17T02:13:42;95598.19;;;4.23;60.43
58092;BME280;43896;48.178;11.578;2023-03-17T02:16:14;95595.41;;;4.36;60.51
58092;BME280;43896;48.178;11.578;2023-03-17T02:18:40;95594.75;;;4.23;60.94
58092;BME280;43896;48.178;11.578;2023-03-17T02:23:34;95567.09;;;3.89;61.61
58092;BME280;43896;48.178;11.578;2023-03-17T02:26:00;95608.72;;;3.89;63.13
58092;BME280;43896;48.178;11.578;2023-03-17T02:28:29;95588.94;;;3.98;62.79
58092;BME280;43896;48.178;11.578;2023-03-17T02:30:55;95589.50;;;4.02;62.25
58092;BME280;43896;48.178;11.578;2023-03-17T02:33:21;95562.91;;;3.98;61.67
58092;BME280;43896;48.178;11.578;2023-03-17T02:35:47;95557.44;;;3.80;62.74
58092;BME280;43896;48.178;11.578;2023-03-17T02:38:12;95610.75;;;3.86;62.97
58092;BME280;43896;48.178;11.578;2023-03-17T02:40:38;95555.75;;;3.90;61.89
58092;BME280;43896;48.178;11.578;2023-03-17T02:43:03;95552.72;;;4.06;61.79
58092;BME280;43896;48.178;11.578;2023-03-17T02:45:30;95510.69;;;3.90;61.29
58092;BME280;43896;48.178;11.578;2023-03-17T02:47:56;95541.44;;;4.17;61.03
58092;BME280;43896;48.178;11.578;2023-03-17T02:50:25;95580.56;;;4.48;60.40
58092;BME280;43896;48.178;11.578;2023-03-17T02:52:52;95570.13;;;4.27;60.80
58092;BME280;43896;48.178;11.578;2023-03-17T02:55:18;95628.31;;;4.58;62.02
58092;BME280;43896;48.178;11.578;2023-03-17T02:57:44;95538.50;;;3.78;61.73
58092;BME280;43896;48.178;11.578;2023-03-17T03:00:11;95506.16;;;3.27;62.88
58092;BME280;43896;48.178;11.578;2023-03-17T03:02:38;95517.31;;;3.50;62.74
58092;BME280;43896;48.178;11.578;2023-03-17T03:05:05;95629.78;;;4.30;62.52
58092;BME280;43896;48.178;11.578;2023-03-17T03:07:31;95549.81;;;4.21;61.19
58092;BME280;43896;48.178;11.578;2023-03-17T03:09:57;95618.91;;;4.67;61.24
58092;BME280;43896;48.178;11.578;2023-03-17T03:12:23;95527.72;;;3.94;60.99
58092;BME280;43896;48.178;11.578;2023-03-17T03:14:49;95547.97;;;3.79;60.97
58092;BME280;43896;48.178;11.578;2023-03-17T03:17:14;95507.50;;;3.22;63.08
58092;BME280;43896;48.178;11.578;2023-03-17T03:19:40;95535.66;;;3.81;62.56
58092;BME280;43896;48.178;11.578;2023-03-17T03:22:06;95628.97;;;4.50;61.84
58092;BME280;43896;48.178;11.578;2023-03-17T03:24:32;95502.63;;;3.61;61.57
58092;BME280;43896;48.178;11.578;2023-03-17T03:26:58;95559.88;;;3.93;62.33
58092;BME280;43896;48.178;11.578;2023-03-17T03:29:23;95477.28;;;3.74;61.54
58092;BME280;43896;48.178;11.578;2023-03-17T03:31:49;95539.34;;;3.79;61.98
58092;BME280;43896;48.178;11.578;2023-03-17T03:34:15;95571.03;;;3.84;62.48
58092;BME280;43896;48.178;11.578;2023-03-17T03:36:40;95524.00;;;3.75;61.89
58092;BME280;43896;48.178;11.578;2023-03-17T03:39:06;95544.50;;;3.90;61.92
58092;BME280;43896;48.178;11.578;2023-03-17T03:41:32;95599.09;;;4.01;62.85
58092;BME280;43896;48.178;11.578;2023-03-17T03:43:58;95539.34;;;3.79;61.34
58092;BME280;43896;48.178;11.578;2023-03-17T03:46:23;95543.25;;;3.73;62.02
58092;BME280;43896;48.178;11.578;2023-03-17T03:48:50;95520.81;;;3.72;62.22
58092;BME280;43896;48.178;11.578;2023-03-17T03:51:16;95570.75;;;4.19;61.16
58092;BME280;43896;48.178;11.578;2023-03-17T03:53:41;95525.28;;;4.02;61.02
58092;BME280;43896;48.178;11.578;2023-03-17T03:56:06;95539.59;;;4.29;60.52
58092;BME280;43896;48.178;11.578;2023-03-17T03:58:32;95582.00;;;4.62;60.58
58092;BME280;43896;48.178;11.578;2023-03-17T04:00:57;95530.06;;;4.39;60.47
58092;BME280;43896;48.178;11.578;2023-03-17T04:03:23;95524.38;;;4.45;60.17
58092;BME280;43896;48.178;11.578;2023-03-17T04:05:48;95556.88;;;4.30;60.87
58092;BME280;43896;48.178;11.578;2023-03-17T04:08:13;95520.84;;;3.93;61.27
58092;BME280;43896;48.178;11.578;2023-03-17T04:10:39;95535.06;;;3.89;61.41
58092;BME280;43896;48.178;11.578;2023-03-17T04:13:04;95569.16;;;4.07;62.13
58092;BME280;43896;48.178;11.578;2023-03-17T04:15:30;95510.88;;;3.77;61.80
58092;BME280;43896;48.178;11.578;2023-03-17T04:17:56;95514.50;;;4.07;60.97
58092;BME280;43896;48.178;11.578;2023-03-17T04:20:21;95513.81;;;4.26;60.63
58092;BME280;43896;48.178;11.578;2023-03-17T04:22:47;95531.56;;;4.42;60.01
58092;BME280;43896;48.178;11.578;2023-03-17T04:25:13;95517.22;;;4.05;61.23
58092;BME280;43896;48.178;11.578;2023-03-17T04:27:40;95521.41;;;4.18;60.34
58092;BME280;43896;48.178;11.578;2023-03-17T04:30:07;95490.50;;;3.82;60.62
58092;BME280;43896;48.178;11.578;2023-03-17T04:32:33;95513.81;;;3.72;61.29
58092;BME280;43896;48.178;11.578;2023-03-17T04:34:58;95591.75;;;4.39;61.04
58092;BME280;43896;48.178;11.578;2023-03-17T04:37:24;95619.91;;;4.66;61.36
58092;BME280;43896;48.178;11.578;2023-03-17T04:39:49;95491.28;;;3.94;60.54
58092;BME280;43896;48.178;11.578;2023-03-17T04:42:16;95502.53;;;3.83;61.24
58092;BME280;43896;48.178;11.578;2023-03-17T04:44:42;95544.59;;;4.21;60.67
58092;BME280;43896;48.178;11.578;2023-03-17T04:47:11;95565.94;;;4.36;60.75
58092;BME280;43896;48.178;11.578;2023-03-17T04:49:37;95517.81;;;4.09;60.02
58092;BME280;43896;48.178;11.578;2023-03-17T04:52:02;95579.16;;;4.44;60.65
58092;BME280;43896;48.178;11.578;2023-03-17T04:54:28;95506.78;;;3.96;60.80
58092;BME280;43896;48.178;11.578;2023-03-17T04:56:53;95600.38;;;4.60;60.61
58092;BME280;43896;48.178;11.578;2023-03-17T04:59:19;95544.59;;;4.21;60.22
58092;BME280;43896;48.178;11.578;2023-03-17T05:01:44;95532.09;;;4.15;60.39
58092;BME280;43896;48.178;11.578;2023-03-17T05:04:10;95537.81;;;4.29;59.83
58092;BME280;43896;48.178;11.578;2023-03-17T05:06:36;95552.84;;;4.26;59.98
58092;BME280;43896;48.178;11.578;2023-03-17T05:09:02;95548.63;;;4.25;61.00
58092;BME280;43896;48.178;11.578;2023-03-17T05:11:27;95495.91;;;3.90;60.03
58092;BME280;43896;48.178;11.578;2023-03-17T05:13:53;95524.66;;;4.10;60.20
58092;BME280;43896;48.178;11.578;2023-03-17T05:16:18;95507.75;;;3.83;60.33
58092;BME280;43896;48.178;11.578;2023-03-17T05:18:44;95503.38;;;3.84;59.82
58092;BME280;43896;48.178;11.578;2023-03-17T05:21:09;95556.09;;;4.18;60.90
58092;BME280;43896;48.178;11.578;2023-03-17T05:23:35;95514.00;;;3.92;60.64
58092;BME280;43896;48.178;11.578;2023-03-17T05:26:01;95484.50;;;3.82;60.93
58092;BME280;43896;48.178;11.578;2023-03-17T05:28:26;95577.31;;;4.35;60.73
58092;BME280;43896;48.178;11.578;2023-03-17T05:30:53;95576.59;;;4.32;60.85
58092;BME280;43896;48.178;11.578;2023-03-17T05:33:19;95598.41;;;4.53;60.00
58092;BME280;43896;48.178;11.578;2023-03-17T05:35:46;95532.03;;;4.05;60.59
58092;BME280;43896;48.178;11.578;2023-03-17T05:38:12;95579.78;;;4.36;60.05
58092;BME280;43896;48.178;11.578;2023-03-17T05:40:38;95608.88;;;4.62;60.38
58092;BME280;43896;48.178;11.578;2023-03-17T05:43:04;95569.00;;;4.41;59.95
58092;BME280;43896;48.178;11.578;2023-03-17T05:45:30;95563.25;;;4.47;59.60
58092;BME280;43896;48.178;11.578;2023-03-17T05:47:56;95584.63;;;4.62;59.61
58092;BME280;43896;48.178;11.578;2023-03-17T05:50:22;95569.66;;;4.54;59.97
58092;BME280;43896;48.178;11.578;2023-03-17T05:52:47;95587.22;;;4.62;59.93
58092;BME280;43896;48.178;11.578;2023-03-17T05:55:12;95565.59;;;4.40;59.98
58092;BME280;43896;48.178;11.578;2023-03-17T05:57:38;95591.94;;;4.68;60.79
58092;BME280;43896;48.178;11.578;2023-03-17T06:00:03;95597.78;;;4.81;60.58
58092;BME280;43896;48.178;11.578;2023-03-17T06:02:29;95589.06;;;4.92;59.26
58092;BME280;43896;48.178;11.578;2023-03-17T06:04:55;95580.66;;;4.67;59.81
58092;BME280;43896;48.178;11.578;2023-03-17T06:07:20;95548.28;;;4.60;59.15
58092;BME280;43896;48.178;11.578;2023-03-17T06:09:46;95581.09;;;4.73;58.54
58092;BME280;43896;48.178;11.578;2023-03-17T06:12:11;95573.28;;;4.73;58.83
58092;BME280;43896;48.178;11.578;2023-03-17T06:14:37;95590.63;;;5.04;58.41
58092;BME280;43896;48.178;11.578;2023-03-17T06:17:03;95600.13;;;5.15;57.73
58092;BME280;43896;48.178;11.578;2023-03-17T06:19:29;95567.31;;;4.82;58.39
58092;BME280;43896;48.178;11.578;2023-03-17T06:21:54;95577.31;;;4.77;58.82
58092;BME280;43896;48.178;11.578;2023-03-17T06:24:20;95590.88;;;5.01;58.51
58092;BME280;43896;48.178;11.578;2023-03-17T06:26:45;95576.91;;;5.12;58.30
58092;BME280;43896;48.178;11.578;2023-03-17T06:29:23;95598.38;;;5.16;58.35
58092;BME280;43896;48.178;11.578;2023-03-17T06:31:49;95585.97;;;5.08;58.37
58092;BME280;43896;48.178;11.578;2023-03-17T06:34:16;95583.88;;;5.02;58.58
58092;BME280;43896;48.178;11.578;2023-03-17T06:36:42;95573.16;;;5.36;57.93
58092;BME280;43896;48.178;11.578;2023-03-17T06:39:08;95590.34;;;5.07;58.70
58092;BME280;43896;48.178;11.578;2023-03-17T06:41:33;95571.13;;;5.08;57.83
58092;BME280;43896;48.178;11.578;2023-03-17T06:43:59;95575.16;;;5.13;58.16
58092;BME280;43896;48.178;11.578;2023-03-17T06:46:24;95552.25;;;5.16;58.18
58092;BME280;43896;48.178;11.578;2023-03-17T06:48:49;95589.06;;;5.33;57.93
58092;BME280;43896;48.178;11.578;2023-03-17T06:51:21;95587.44;;;5.41;58.28
58092;BME280;43896;48.178;11.578;2023-03-17T06:53:46;95592.97;;;5.48;57.58
58092;BME280;43896;48.178;11.578;2023-03-17T06:56:11;95513.50;;;5.02;58.60
58092;BME280;43896;48.178;11.578;2023-03-17T06:58:37;95514.69;;;5.29;57.95
58092;BME280;43896;48.178;11.578;2023-03-17T07:01:04;95537.66;;;5.54;57.42
58092;BME280;43896;48.178;11.578;2023-03-17T07:03:29;95503.63;;;5.56;55.05
58092;BME280;43896;48.178;11.578;2023-03-17T07:05:55;95567.56;;;6.20;55.80
58092;BME280;43896;48.178;11.578;2023-03-17T07:08:20;95543.53;;;6.26;53.98
58092;BME280;43896;48.178;11.578;2023-03-17T07:10:46;95535.50;;;5.79;56.54
58092;BME280;43896;48.178;11.578;2023-03-17T07:13:11;95559.19;;;5.97;55.78
58092;BME280;43896;48.178;11.578;2023-03-17T07:15:37;95509.97;;;6.31;53.81
58092;BME280;43896;48.178;11.578;2023-03-17T07:18:03;95559.75;;;6.87;53.19
58092;BME280;43896;48.178;11.578;2023-03-17T07:20:29;95590.28;;;6.96;53.08
58092;BME280;43896;48.178;11.578;2023-03-17T07:22:55;95557.81;;;6.42;53.87
58092;BME280;43896;48.178;11.578;2023-03-17T07:25:21;95534.03;;;6.25;54.62
58092;BME280;43896;48.178;11.578;2023-03-17T07:27:46;95557.50;;;6.64;53.99
58092;BME280;43896;48.178;11.578;2023-03-17T07:30:12;95508.53;;;6.56;52.79
58092;BME280;43896;48.178;11.578;2023-03-17T07:32:39;95507.81;;;6.74;52.68
58092;BME280;43896;48.178;11.578;2023-03-17T07:35:05;95538.34;;;6.73;53.88
58092;BME280;43896;48.178;11.578;2023-03-17T07:37:31;95506.00;;;6.84;53.99
58092;BME280;43896;48.178;11.578;2023-03-17T07:39:56;95568.72;;;7.22;52.35
58092;BME280;43896;48.178;11.578;2023-03-17T07:42:22;95539.03;;;7.41;52.70
58092;BME280;43896;48.178;11.578;2023-03-17T07:44:47;95563.03;;;7.82;51.10
58092;BME280;43896;48.178;11.578;2023-03-17T07:47:13;95604.53;;;8.22;50.47
58092;BME280;43896;48.178;11.578;2023-03-17T07:49:39;95605.63;;;8.48;49.49
58092;BME280;43896;48.178;11.578;2023-03-17T07:52:04;95564.56;;;8.38;49.96
58092;BME280;43896;48.178;11.578;2023-03-17T07:54:30;95584.09;;;8.26;50.34
58092;BME280;43896;48.178;11.578;2023-03-17T07:56:56;95571.28;;;8.77;49.14
58092;BME280;43896;48.178;11.578;2023-03-17T07:59:22;95525.84;;;8.50;49.52
58092;BME280;43896;48.178;11.578;2023-03-17T08:01:47;95579.56;;;9.16;48.09
58092;BME280;43896;48.178;11.578;2023-03-17T08:04:13;95581.28;;;9.76;46.79
58092;BME280;43896;48.178;11.578;2023-03-17T08:06:39;95583.84;;;10.27;46.09
58092;BME280;43896;48.178;11.578;2023-03-17T08:09:08;95562.34;;;10.07;45.59
58092;BME280;43896;48.178;11.578;2023-03-17T08:11:36;95587.50;;;10.35;45.46
58092;BME280;43896;48.178;11.578;2023-03-17T08:14:02;95573.88;;;10.64;44.38
58092;BME280;43896;48.178;11.578;2023-03-17T08:16:28;95597.03;;;11.01;43.74
58092;BME280;43896;48.178;11.578;2023-03-17T08:18:54;95590.09;;;11.25;44.14
58092;BME280;43896;48.178;11.578;2023-03-17T08:21:20;95601.72;;;11.47;43.48
58092;BME280;43896;48.178;11.578;2023-03-17T08:23:45;95599.41;;;11.52;43.74
58092;BME280;43896;48.178;11.578;2023-03-17T08:26:11;95593.72;;;11.72;42.16
58092;BME280;43896;48.178;11.578;2023-03-17T08:28:38;95596.75;;;11.52;42.58
58092;BME280;43896;48.178;11.578;2023-03-17T08:31:08;95591.50;;;12.00;41.93
58092;BME280;43896;48.178;11.578;2023-03-17T08:33:34;95563.69;;;12.21;42.18
58092;BME280;43896;48.178;11.578;2023-03-17T08:36:03;95569.13;;;12.19;41.84
58092;BME280;43896;48.178;11.578;2023-03-17T08:38:29;95549.06;;;12.10;41.46
58092;BME280;43896;48.178;11.578;2023-03-17T08:40:59;95537.53;;;12.57;41.29
58092;BME280;43896;48.178;11.578;2023-03-17T08:43:25;95563.56;;;12.98;40.43
58092;BME280;43896;48.178;11.578;2023-03-17T08:45:52;95569.88;;;13.12;39.85
58092;BME280;43896;48.178;11.578;2023-03-17T08:48:17;95572.13;;;13.30;39.14
58092;BME280;43896;48.178;11.578;2023-03-17T08:50:43;95561.72;;;13.52;39.64
58092;BME280;43896;48.178;11.578;2023-03-17T08:53:09;95549.06;;;13.98;38.16
58092;BME280;43896;48.178;11.578;2023-03-17T08:55:36;95542.53;;;14.16;38.72
58092;BME280;43896;48.178;11.578;2023-03-17T08:58:01;95538.63;;;14.55;37.82
58092;BME280;43896;48.178;11.578;2023-03-17T09:00:27;95566.28;;;14.52;38.15
58092;BME280;43896;48.178;11.578;2023-03-17T09:02:52;95561.66;;;13.81;38.37
58092;BME280;43896;48.178;11.578;2023-03-17T09:05:18;95564.59;;;14.44;37.02
58092;BME280;43896;48.178;11.578;2023-03-17T09:07:44;95583.88;;;15.03;35.89
58092;BME280;43896;48.178;11.578;2023-03-17T09:10:11;95558.53;;;14.51;37.14
58092;BME280;43896;48.178;11.578;2023-03-17T09:12:38;95583.13;;;14.88;36.50
58092;BME280;43896;48.178;11.578;2023-03-17T09:15:04;95575.09;;;14.38;37.11
58092;BME280;43896;48.178;11.578;2023-03-17T09:17:30;95567.00;;;14.82;37.68
58092;BME280;43896;48.178;11.578;2023-03-17T09:19:55;95561.34;;;15.55;35.60
58092;BME280;43896;48.178;11.578;2023-03-17T09:22:21;95545.81;;;15.11;36.04
58092;BME280;43896;48.178;11.578;2023-03-17T09:24:47;95546.53;;;15.61;35.45
58092;BME280;43896;48.178;11.578;2023-03-17T09:27:12;95536.19;;;15.73;35.54
58092;BME280;43896;48.178;11.578;2023-03-17T09:29:38;95531.03;;;15.65;35.10
58092;BME280;43896;48.178;11.578;2023-03-17T09:32:03;95556.03;;;15.84;34.95
58092;BME280;43896;48.178;11.578;2023-03-17T09:34:28;95529.66;;;16.37;35.47
58092;BME280;43896;48.178;11.578;2023-03-17T09:36:54;95550.06;;;16.37;35.13
58092;BME280;43896;48.178;11.578;2023-03-17T09:39:20;95534.97;;;16.71;33.94
58092;BME280;43896;48.178;11.578;2023-03-17T09:49:50;95525.31;;;14.91;36.68
58092;BME280;43896;48.178;11.578;2023-03-17T09:52:28;95515.06;;;16.00;34.87
58092;BME280;43896;48.178;11.578;2023-03-17T09:54:54;95514.75;;;16.49;34.03
58092;BME280;43896;48.178;11.578;2023-03-17T09:57:36;95520.88;;;15.27;36.56
58092;BME280;43896;48.178;11.578;2023-03-17T10:00:11;95527.56;;;15.57;36.46
58092;BME280;43896;48.178;11.578;2023-03-17T10:02:38;95523.13;;;16.53;34.81
58092;BME280;43896;48.178;11.578;2023-03-17T10:05:27;95526.59;;;16.54;35.17
58092;BME280;43896;48.178;11.578;2023-03-17T10:08:26;95485.94;;;17.06;34.55
58092;BME280;43896;48.178;11.578;2023-03-17T10:14:01;95523.72;;;18.01;31.34
58092;BME280;43896;48.178;11.578;2023-03-17T10:16:47;95505.91;;;18.01;31.28
58092;BME280;43896;48.178;11.578;2023-03-17T10:19:28;95528.59;;;18.10;31.85
58092;BME280;43896;48.178;11.578;2023-03-17T10:22:18;95500.78;;;17.48;31.66
58092;BME280;43896;48.178;11.578;2023-03-17T10:24:47;95518.22;;;17.10;32.94
58092;BME280;43896;48.178;11.578;2023-03-17T10:27:15;95504.22;;;17.55;31.90
58092;BME280;43896;48.178;11.578;2023-03-17T10:29:41;95496.25;;;17.48;32.46
58092;BME280;43896;48.178;11.578;2023-03-17T10:32:10;95495.78;;;18.16;31.10
58092;BME280;43896;48.178;11.578;2023-03-17T10:34:36;95485.50;;;17.81;29.96
58092;BME280;43896;48.178;11.578;2023-03-17T10:37:12;95471.53;;;17.99;30.96
58092;BME280;43896;48.178;11.578;2023-03-17T10:39:44;95487.03;;;18.09;32.70
58092;BME280;43896;48.178;11.578;2023-03-17T10:42:18;95506.81;;;17.75;33.18
58092;BME280;43896;48.178;11.578;2023-03-17T10:45:01;95499.94;;;18.37;31.74
58092;BME280;43896;48.178;11.578;2023-03-17T10:47:39;95428.47;;;18.41;31.82
58092;BME280;43896;48.178;11.578;2023-03-17T10:52:41;95456.97;;;19.28;30.40
58092;BME280;43896;48.178;11.578;2023-03-17T10:55:08;95506.53;;;19.73;29.70
58092;BME280;43896;48.178;11.578;2023-03-17T10:57:37;95500.81;;;19.51;29.44
58092;BME280;43896;48.178;11.578;2023-03-17T11:00:13;95501.50;;;17.75;32.11
58092;BME280;43896;48.178;11.578;2023-03-17T11:02:49;95468.50;;;18.53;30.78
58092;BME280;43896;48.178;11.578;2023-03-17T11:05:22;95448.66;;;18.99;29.90
58092;BME280;43896;48.178;11.578;2023-03-17T11:07:48;95466.97;;;19.51;28.89
58092;BME280;43896;48.178;11.578;2023-03-17T11:10:25;95492.34;;;19.91;28.48
58092;BME280;43896;48.178;11.578;2023-03-17T11:12:58;95481.03;;;20.26;29.44
58092;BME280;43896;48.178;11.578;2023-03-17T11:15:32;95468.44;;;20.56;28.16
58092;BME280;43896;48.178;11.578;2023-03-17T11:18:01;95456.13;;;20.55;28.20
58092;BME280;43896;48.178;11.578;2023-03-17T11:20:33;95481.38;;;19.06;30.44
58092;BME280;43896;48.178;11.578;2023-03-17T11:23:04;95481.69;;;18.98;31.51
58092;BME280;43896;48.178;11.578;2023-03-17T11:25:33;95436.31;;;19.23;31.13
58092;BME280;43896;48.178;11.578;2023-03-17T11:28:19;95463.69;;;19.49;30.69
58092;BME280;43896;48.178;11.578;2023-03-17T11:36:12;95462.88;;;18.93;34.86
58092;BME280;43896;48.178;11.578;2023-03-17T11:38:55;95389.72;;;17.50;38.55
58092;BME280;43896;48.178;11.578;2023-03-17T11:41:34;95454.50;;;18.64;33.83
58092;BME280;43896;48.178;11.578;2023-03-17T11:46:48;95379.56;;;18.79;35.83
58092;BME280;43896;48.178;11.578;2023-03-17T11:49:19;95458.66;;;19.59;34.61
58092;BME280;43896;48.178;11.578;2023-03-17T11:56:50;95440.66;;;20.34;32.42
58092;BME280;43896;48.178;11.578;2023-03-17T11:59:29;95438.09;;;20.51;30.89
58092;BME280;43896;48.178;11.578;2023-03-17T12:02:26;95374.94;;;19.91;32.81
58092;BME280;43896;48.178;11.578;2023-03-17T12:05:07;95447.91;;;19.66;31.10
58092;BME280;43896;48.178;11.578;2023-03-17T12:07:34;95444.72;;;20.48;29.44
58092;BME280;43896;48.178;11.578;2023-03-17T12:10:21;95436.16;;;19.55;31.96
58092;BME280;43896;48.178;11.578;2023-03-17T12:12:51;95426.66;;;20.08;30.78
58092;BME280;43896;48.178;11.578;2023-03-17T12:15:55;95441.72;;;19.35;32.13
58092;BME280;43896;48.178;11.578;2023-03-17T12:18:36;95437.34;;;18.79;32.90
58092;BME280;43896;48.178;11.578;2023-03-17T12:21:10;95403.91;;;18.14;33.22
58092;BME280;43896;48.178;11.578;2023-03-17T12:23:50;95377.72;;;18.36;33.18
58092;BME280;43896;48.178;11.578;2023-03-17T12:26:22;95424.81;;;19.41;32.33
58092;BME280;43896;48.178;11.578;2023-03-17T12:28:58;95403.19;;;18.50;32.91
58092;BME280;43896;48.178;11.578;2023-03-17T12:31:29;95415.31;;;17.83;35.08
58092;BME280;43896;48.178;11.578;2023-03-17T12:36:21;95409.47;;;17.67;35.72
58092;BME280;43896;48.178;11.578;2023-03-17T12:38:53;95413.72;;;18.13;34.89
58092;BME280;43896;48.178;11.578;2023-03-17T12:41:40;95400.47;;;18.57;33.88
58092;BME280;43896;48.178;11.578;2023-03-17T12:44:35;95416.28;;;18.52;34.32
58092;BME280;43896;48.178;11.578;2023-03-17T12:47:12;95412.31;;;18.86;33.34
58092;BME280;43896;48.178;11.578;2023-03-17T12:55:15;95395.63;;;18.72;34.04
58092;BME280;43896;48.178;11.578;2023-03-17T12:57:44;95400.97;;;18.47;34.16
58092;BME280;43896;48.178;11.578;2023-03-17T13:00:22;95400.00;;;18.85;33.21
58092;BME280;43896;48.178;11.578;2023-03-17T13:02:52;95400.03;;;18.60;34.14
58092;BME280;43896;48.178;11.578;2023-03-17T13:05:32;95360.63;;;18.44;34.50
58092;BME280;43896;48.178;11.578;2023-03-17T13:08:03;95392.47;;;18.57;34.37
58092;BME280;43896;48.178;11.578;2023-03-17T13:10:43;95388.69;;;17.89;35.96
58092;BME280;43896;48.178;11.578;2023-03-17T13:13:34;95352.81;;;17.35;37.39
58092;BME280;43896;48.178;11.578;2023-03-17T13:16:04;95370.97;;;17.76;37.37
58092;BME280;43896;48.178;11.578;2023-03-17T13:24:40;95379.91;;;17.89;37.54
58092;BME280;43896;48.178;11.578;2023-03-17T13:26:54;95382.41;;;17.77;37.67
58092;BME280;43896;48.178;11.578;2023-03-17T13:38:03;95374.72;;;17.23;39.28
58092;BME280;43896;48.178;11.578;2023-03-17T13:43:16;95372.38;;;17.40;38.89
58092;BME280;43896;48.178;11.578;2023-03-17T13:45:47;95358.53;;;17.32;39.35
58092;BME280;43896;48.178;11.578;2023-03-17T13:48:35;95375.81;;;17.09;38.43
58092;BME280;43896;48.178;11.578;2023-03-17T13:53:39;95382.28;;;17.27;38.43
58092;BME280;43896;48.178;11.578;2023-03-17T14:01:18;95352.34;;;17.76;38.01
58092;BME280;43896;48.178;11.578;2023-03-17T14:03:49;95350.19;;;17.60;38.49
58092;BME280;43896;48.178;11.578;2023-03-17T14:06:16;95366.63;;;17.82;37.92
58092;BME280;43896;48.178;11.578;2023-03-17T14:08:49;95360.84;;;17.53;38.81
58092;BME280;43896;48.178;11.578;2023-03-17T14:11:39;95341.19;;;17.61;39.22
58092;BME280;43896;48.178;11.578;2023-03-17T14:14:26;95341.72;;;16.79;39.93